Time;durP1;ratioP1;P1;durP2;ratioP2;P2;SDS_P1;SDS_P2;PMS_P1;PMS_P2;Temp;Humidity;BMP_temperature;BMP_pressure;BME280_temperature;BME280_humidity;BME280_pressure;Samples;Min_cycle;Max_cycle;Signal;HPM_P1;HPM_P2
2023/02/03 00:00:06;;;;;;;5.50;1.92;;;;;;;3.67;100.00;101304.25;5002647;28;20477;-73
2023/02/03 00:02:36;;;;;;;10.32;2.42;;;;;;;3.66;100.00;101312.91;5003004;28;20041;-73
2023/02/03 00:05:02;;;;;;;13.90;2.00;;;;;;;3.65;100.00;101300.69;5005511;28;20394;-73
2023/02/03 00:07:27;;;;;;;5.53;1.77;;;;;;;3.66;100.00;101307.69;5004900;28;20042;-73
2023/02/03 00:09:55;;;;;;;7.68;2.10;;;;;;;3.62;100.00;101305.81;5002874;28;20095;-73
2023/02/03 00:12:20;;;;;;;7.43;1.73;;;;;;;3.67;100.00;101306.84;5004195;28;20489;-74
2023/02/03 00:14:45;;;;;;;5.22;1.70;;;;;;;3.62;100.00;101313.66;5005327;28;20040;-73
2023/02/03 00:17:11;;;;;;;6.28;2.40;;;;;;;3.59;100.00;101305.69;5005886;28;20180;-73
2023/02/03 00:19:36;;;;;;;7.03;2.28;;;;;;;3.58;100.00;101303.91;5005227;28;20085;-73
2023/02/03 00:22:01;;;;;;;6.35;2.45;;;;;;;3.56;100.00;101300.34;5002469;28;20038;-73
2023/02/03 00:24:27;;;;;;;5.63;2.00;;;;;;;3.51;100.00;101287.16;5007386;28;20112;-73
2023/02/03 00:26:52;;;;;;;7.80;2.30;;;;;;;3.50;100.00;101282.78;5000716;28;20039;-74
2023/02/03 00:29:20;;;;;;;12.95;2.22;;;;;;;3.48;100.00;101280.13;5004370;28;20069;-73
2023/02/03 00:31:45;;;;;;;6.45;2.33;;;;;;;3.44;100.00;101270.41;5001719;28;20100;-73
2023/02/03 00:34:11;;;;;;;8.02;2.50;;;;;;;3.41;100.00;101270.31;5005625;28;20120;-73
2023/02/03 00:36:38;;;;;;;7.95;2.63;;;;;;;3.43;100.00;101260.81;5000581;28;20527;-73
2023/02/03 00:39:03;;;;;;;4.68;2.40;;;;;;;3.47;100.00;101262.69;5004903;28;20037;-73
2023/02/03 00:41:32;;;;;;;7.57;2.70;;;;;;;3.44;100.00;101259.97;5003219;28;20121;-73
2023/02/03 00:43:58;;;;;;;8.45;2.65;;;;;;;3.42;100.00;101256.41;5008574;28;20047;-73
2023/02/03 00:46:23;;;;;;;10.23;2.45;;;;;;;3.43;100.00;101245.16;5003453;28;20034;-73
2023/02/03 00:48:48;;;;;;;7.20;2.40;;;;;;;3.43;100.00;101242.53;5003653;28;20034;-73
2023/02/03 00:51:14;;;;;;;10.65;2.83;;;;;;;3.45;100.00;101237.34;5006209;28;20034;-74
2023/02/03 00:53:39;;;;;;;5.07;2.15;;;;;;;3.45;100.00;101233.03;5003396;28;20411;-73
2023/02/03 00:56:11;;;;;;;6.07;2.35;;;;;;;3.47;100.00;101233.97;5001941;28;20050;-73
2023/02/03 00:58:40;;;;;;;10.20;2.37;;;;;;;3.51;100.00;101214.97;5005991;28;20042;-73
2023/02/03 01:01:06;;;;;;;4.88;2.08;;;;;;;3.50;100.00;101210.56;5003078;28;20342;-73
2023/02/03 01:03:31;;;;;;;13.10;2.50;;;;;;;3.41;100.00;101207.69;5003176;28;20133;-73
2023/02/03 01:06:14;;;;;;;7.45;2.35;;;;;;;3.42;100.00;101193.78;5003199;28;20125;-73
2023/02/03 01:08:40;;;;;;;7.63;2.28;;;;;;;3.33;100.00;101188.28;5001742;28;20034;-73
2023/02/03 01:11:10;;;;;;;4.60;1.95;;;;;;;3.25;100.00;101187.13;5002823;28;20037;-73
2023/02/03 01:13:36;;;;;;;7.97;1.67;;;;;;;3.20;100.00;101186.09;5004256;28;20507;-73
2023/02/03 01:16:01;;;;;;;6.88;2.15;;;;;;;3.07;100.00;101179.56;5001463;28;20117;-73
2023/02/03 01:18:27;;;;;;;7.22;2.65;;;;;;;3.12;100.00;101177.06;5003907;28;20046;-73
2023/02/03 01:20:52;;;;;;;7.15;2.75;;;;;;;3.13;100.00;101179.75;5007687;28;20042;-73
2023/02/03 01:23:17;;;;;;;5.65;2.30;;;;;;;3.17;100.00;101166.00;5002106;28;20034;-73
2023/02/03 01:25:43;;;;;;;8.23;2.42;;;;;;;3.19;100.00;101145.16;5004833;28;20152;-73
2023/02/03 01:28:08;;;;;;;5.10;2.20;;;;;;;3.19;100.00;101147.78;5001507;28;20045;-73
2023/02/03 01:30:33;;;;;;;8.70;2.42;;;;;;;3.20;100.00;101144.34;5001289;28;20045;-73
2023/02/03 01:32:59;;;;;;;5.50;2.30;;;;;;;3.25;100.00;101148.00;5003146;28;20073;-73
2023/02/03 01:35:25;;;;;;;7.60;2.30;;;;;;;3.23;100.00;101152.28;5008296;28;20500;-73
2023/02/03 01:37:50;;;;;;;4.85;2.15;;;;;;;3.17;100.00;101150.34;5000705;28;20045;-72
2023/02/03 01:40:15;;;;;;;3.97;1.55;;;;;;;3.06;100.00;101143.84;5001513;28;20073;-73
2023/02/03 01:42:41;;;;;;;4.25;1.70;;;;;;;3.01;100.00;101143.72;5000884;28;20087;-73
2023/02/03 01:45:07;;;;;;;4.45;1.90;;;;;;;3.04;100.00;101128.19;5003699;28;20073;-73
2023/02/03 01:47:38;;;;;;;4.43;1.60;;;;;;;3.10;100.00;101121.41;5009935;28;20113;-73
2023/02/03 01:50:21;;;;;;;2.95;1.40;;;;;;;3.14;100.00;101118.03;5006998;28;20080;-73
2023/02/03 01:52:52;;;;;;;4.43;1.60;;;;;;;3.11;100.00;101107.50;5002399;28;20074;-73
2023/02/03 01:55:22;;;;;;;6.85;1.85;;;;;;;3.00;100.00;101105.44;5003143;28;20038;-73
2023/02/03 01:57:53;;;;;;;6.65;1.88;;;;;;;3.09;100.00;101089.19;4999357;28;20046;-73
2023/02/03 02:00:19;;;;;;;4.45;1.92;;;;;;;3.14;100.00;101091.94;5001076;28;20033;-73
2023/02/03 02:02:46;;;;;;;7.25;1.77;;;;;;;3.15;100.00;101093.75;5003151;28;20037;-73
2023/02/03 02:05:23;;;;;;;3.67;1.63;;;;;;;3.07;100.00;101081.34;5002874;28;20030;-73
2023/02/03 02:07:49;;;;;;;3.22;1.30;;;;;;;3.12;100.00;101075.38;4998971;28;20034;-73
2023/02/03 02:10:15;;;;;;;5.57;1.60;;;;;;;3.15;100.00;101078.97;5002815;28;20045;-73
2023/02/03 02:12:41;;;;;;;4.40;1.85;;;;;;;3.17;100.00;101082.53;5010077;28;20427;-73
2023/02/03 02:15:07;;;;;;;5.90;1.77;;;;;;;3.16;100.00;101080.75;5000884;28;20053;-73
2023/02/03 02:17:47;;;;;;;4.25;1.90;;;;;;;3.12;100.00;101063.22;5008736;28;20091;-73
2023/02/03 02:20:36;;;;;;;5.43;1.85;;;;;;;3.11;100.00;101050.13;5016672;28;20038;-73
2023/02/03 02:23:39;;;;;;;4.22;1.65;;;;;;;3.11;100.00;101039.69;5004111;28;20035;-73
2023/02/03 02:26:37;;;;;;;4.00;2.10;;;;;;;3.19;100.00;101027.78;4980509;28;20077;-73
2023/02/03 02:29:12;;;;;;;5.25;1.70;;;;;;;3.18;100.00;101015.59;5008810;28;20030;-73
2023/02/03 02:31:46;;;;;;;4.93;2.10;;;;;;;3.11;100.00;101004.06;4999294;28;20038;-73
2023/02/03 02:34:18;;;;;;;5.55;1.60;;;;;;;3.22;100.00;100989.66;5002266;28;20038;-73
2023/02/03 02:37:04;;;;;;;5.47;1.77;;;;;;;3.20;100.00;100995.66;4999773;28;20040;-73
2023/02/03 02:39:39;;;;;;;4.10;2.00;;;;;;;3.17;100.00;100987.72;5006191;28;20493;-73
2023/02/03 02:42:22;;;;;;;3.40;1.80;;;;;;;3.18;100.00;100982.56;4998737;28;20045;-73
2023/02/03 02:44:57;;;;;;;4.95;1.90;;;;;;;3.29;100.00;100975.06;5004927;28;20467;-73
2023/02/03 02:47:23;;;;;;;4.80;1.83;;;;;;;3.38;100.00;100957.09;5005105;28;20044;-73
2023/02/03 02:50:03;;;;;;;5.05;1.60;;;;;;;3.41;100.00;100941.53;5001208;28;20027;-73
2023/02/03 02:52:32;;;;;;;8.02;2.22;;;;;;;3.40;100.00;100934.50;5009006;28;20531;-73
2023/02/03 02:55:06;;;;;;;5.03;2.08;;;;;;;3.42;100.00;100932.84;5007250;28;20037;-73
2023/02/03 02:57:34;;;;;;;3.85;1.65;;;;;;;3.44;100.00;100923.34;5010444;28;20386;-73
2023/02/03 03:00:00;;;;;;;3.55;1.75;;;;;;;3.39;100.00;100916.22;5003460;28;20105;-73
2023/02/03 03:02:32;;;;;;;5.13;1.73;;;;;;;3.40;100.00;100917.97;5013064;28;20045;-73
2023/02/03 03:04:59;;;;;;;5.18;1.45;;;;;;;3.44;100.00;100910.28;5006536;28;20029;-73
2023/02/03 03:07:28;;;;;;;5.78;1.67;;;;;;;3.52;100.00;100905.28;5012346;28;20032;-73
2023/02/03 03:09:59;;;;;;;4.50;1.60;;;;;;;3.53;100.00;100898.34;5003630;28;20084;-73
2023/02/03 03:12:32;;;;;;;3.25;1.60;;;;;;;3.56;100.00;100903.66;5004987;28;20042;-72
2023/02/03 03:15:13;;;;;;;3.45;1.50;;;;;;;3.58;100.00;100896.75;5002020;28;20034;-72
2023/02/03 03:18:04;;;;;;;4.00;1.85;;;;;;;3.59;100.00;100901.13;5011179;28;20103;-72
2023/02/03 03:20:31;;;;;;;3.80;2.03;;;;;;;3.57;100.00;100879.34;5010342;28;20571;-72
2023/02/03 03:23:14;;;;;;;3.28;1.83;;;;;;;3.63;100.00;100884.72;5004443;28;20436;-72
2023/02/03 03:25:44;;;;;;;4.70;2.05;;;;;;;3.65;100.00;100873.47;5005181;28;20455;-73
2023/02/03 03:28:16;;;;;;;6.47;2.40;;;;;;;3.63;100.00;100864.72;5003375;28;20450;-72
2023/02/03 03:30:42;;;;;;;7.82;2.70;;;;;;;3.70;100.00;100865.78;5004214;28;20033;-73
2023/02/03 03:33:08;;;;;;;6.10;2.85;;;;;;;3.77;100.00;100856.38;5005535;28;20037;-72
2023/02/03 03:35:43;;;;;;;4.57;2.38;;;;;;;3.86;100.00;100862.72;5006255;28;20128;-72
2023/02/03 03:38:15;;;;;;;5.82;2.75;;;;;;;3.94;100.00;100848.13;5002520;28;20038;-73
2023/02/03 03:40:48;;;;;;;4.63;2.90;;;;;;;3.93;100.00;100841.16;5002665;28;20516;-73
2023/02/03 03:43:19;;;;;;;6.00;2.88;;;;;;;3.94;100.00;100840.31;5005824;28;20048;-73
2023/02/03 03:45:54;;;;;;;5.68;3.30;;;;;;;4.00;100.00;100844.78;5005311;28;20030;-72
2023/02/03 03:48:35;;;;;;;6.03;3.55;;;;;;;4.09;100.00;100833.72;5007259;28;20037;-73
2023/02/03 03:51:10;;;;;;;5.45;3.08;;;;;;;4.16;100.00;100819.94;5004255;28;20497;-73
2023/02/03 03:53:39;;;;;;;4.82;2.85;;;;;;;4.23;100.00;100808.78;5001996;28;20130;-73
2023/02/03 03:56:08;;;;;;;6.30;4.15;;;;;;;4.30;100.00;100800.25;5005433;28;20055;-73
2023/02/03 03:58:37;;;;;;;7.43;4.10;;;;;;;4.35;100.00;100801.25;5002583;28;20045;-73
2023/02/03 04:01:06;;;;;;;8.00;5.22;;;;;;;4.41;100.00;100800.50;5003861;28;20042;-73
2023/02/03 04:03:47;;;;;;;7.93;4.68;;;;;;;4.55;100.00;100783.41;5003548;28;20042;-73
2023/02/03 04:06:12;;;;;;;10.32;5.63;;;;;;;4.64;100.00;100779.22;5004697;28;20026;-73
2023/02/03 04:08:38;;;;;;;7.40;5.25;;;;;;;4.74;100.00;100784.72;5006322;28;20757;-73
2023/02/03 04:11:04;;;;;;;8.13;5.53;;;;;;;4.84;100.00;100781.41;5004875;28;20129;-73
2023/02/03 04:13:29;;;;;;;10.93;7.10;;;;;;;4.93;100.00;100772.03;4998286;28;20038;-73
2023/02/03 04:15:54;;;;;;;10.75;6.28;;;;;;;4.95;100.00;100763.34;5011025;28;20045;-73
2023/02/03 04:18:20;;;;;;;8.13;5.70;;;;;;;5.04;100.00;100784.44;5011241;28;20695;-73
2023/02/03 04:20:45;;;;;;;11.60;7.20;;;;;;;5.11;100.00;100785.47;5004558;28;20452;-73
2023/02/03 04:23:11;;;;;;;9.50;6.30;;;;;;;5.19;100.00;100775.16;5005517;28;20492;-73
2023/02/03 04:25:36;;;;;;;11.05;7.53;;;;;;;5.24;100.00;100777.00;5004487;28;20400;-73
2023/02/03 04:28:02;;;;;;;10.38;6.32;;;;;;;5.28;100.00;100778.81;5002327;28;20042;-74
2023/02/03 04:30:27;;;;;;;10.57;6.80;;;;;;;5.35;100.00;100778.94;5011616;28;20096;-73
2023/02/03 04:32:53;;;;;;;12.70;6.28;;;;;;;5.41;100.00;100786.91;5001590;28;20030;-74
2023/02/03 04:35:18;;;;;;;13.38;8.07;;;;;;;5.44;100.00;100773.88;5006687;28;20034;-73
2023/02/03 04:37:44;;;;;;;11.30;6.70;;;;;;;5.48;100.00;100786.19;5005131;28;20045;-73
2023/02/03 04:40:11;;;;;;;12.10;6.57;;;;;;;5.56;100.00;100789.81;5001346;28;20042;-74
2023/02/03 04:42:40;;;;;;;9.93;6.10;;;;;;;5.61;100.00;100788.16;5006740;28;20041;-73
2023/02/03 04:45:07;;;;;;;11.48;6.70;;;;;;;5.68;100.00;100795.25;5003235;28;20030;-74
2023/02/03 04:47:33;;;;;;;13.77;7.00;;;;;;;5.70;100.00;100793.56;5010539;28;20048;-74
2023/02/03 04:50:00;;;;;;;11.73;6.82;;;;;;;5.75;100.00;100784.91;5003424;28;20085;-73
2023/02/03 04:52:25;;;;;;;11.15;6.88;;;;;;;5.79;100.00;100771.00;5007732;28;20034;-74
2023/02/03 04:54:50;;;;;;;12.93;6.82;;;;;;;5.80;100.00;100763.19;5003448;28;20128;-75
2023/02/03 04:57:16;;;;;;;13.35;6.57;;;;;;;5.82;100.00;100760.59;5009324;28;20063;-75
2023/02/03 04:59:41;;;;;;;13.52;8.07;;;;;;;5.82;100.00;100734.41;5009482;28;20048;-74
2023/02/03 05:02:07;;;;;;;14.40;8.52;;;;;;;5.83;100.00;100733.53;5004612;28;20080;-74
2023/02/03 05:04:33;;;;;;;16.05;8.98;;;;;;;5.86;100.00;100730.97;5001018;28;20026;-74
2023/02/03 05:06:58;;;;;;;14.43;8.70;;;;;;;5.85;100.00;100730.09;5003458;28;20045;-75
2023/02/03 05:09:24;;;;;;;10.98;6.53;;;;;;;5.92;100.00;100731.94;5000588;28;20038;-75
2023/02/03 05:11:49;;;;;;;13.13;7.18;;;;;;;5.98;100.00;100725.97;5004168;28;20049;-72
2023/02/03 05:14:15;;;;;;;13.75;7.40;;;;;;;6.04;100.00;100706.81;5002152;28;20038;-71
2023/02/03 05:16:40;;;;;;;11.45;7.05;;;;;;;6.06;100.00;100708.63;5000492;28;20077;-71
2023/02/03 05:19:05;;;;;;;11.48;6.65;;;;;;;6.11;100.00;100701.69;5007522;28;20069;-71
2023/02/03 05:21:30;;;;;;;10.80;7.47;;;;;;;6.12;100.00;100690.34;5002827;28;20041;-71
2023/02/03 05:23:56;;;;;;;13.30;7.85;;;;;;;6.14;100.00;100683.41;5003346;28;20092;-71
2023/02/03 05:26:22;;;;;;;10.73;8.32;;;;;;;6.19;100.00;100690.47;5002563;28;20036;-71
2023/02/03 05:28:48;;;;;;;10.18;6.70;;;;;;;6.13;100.00;100683.38;5005461;28;20034;-71
2023/02/03 05:31:13;;;;;;;10.50;6.38;;;;;;;6.19;100.00;100687.84;5003667;28;20042;-71
2023/02/03 05:33:38;;;;;;;11.10;6.93;;;;;;;6.17;100.00;100690.44;5003466;28;20048;-71
2023/02/03 05:36:04;;;;;;;11.77;6.55;;;;;;;6.20;100.00;100686.97;5003689;28;20026;-71
2023/02/03 05:38:29;;;;;;;13.07;7.45;;;;;;;6.23;100.00;100700.09;5011274;28;20130;-71
2023/02/03 05:43:38;;;;;;;11.00;6.85;;;;;;;6.30;100.00;100704.59;5010034;28;20672;-71
2023/02/03 05:46:05;;;;;;;11.63;7.65;;;;;;;6.32;100.00;100697.63;5004555;28;20037;-72
2023/02/03 05:48:31;;;;;;;13.55;7.32;;;;;;;6.35;100.00;100687.19;5007093;28;20580;-71
2023/02/03 05:50:57;;;;;;;16.00;8.68;;;;;;;6.31;100.00;100669.63;5007166;28;20030;-71
2023/02/03 05:53:23;;;;;;;13.18;8.00;;;;;;;6.39;100.00;100674.97;5003401;28;20482;-71
2023/02/03 05:55:49;;;;;;;11.55;6.72;;;;;;;6.45;100.00;100664.59;5005270;28;20069;-71
2023/02/03 05:58:14;;;;;;;13.93;7.78;;;;;;;6.45;100.00;100659.34;5004874;28;20026;-71
2023/02/03 06:00:39;;;;;;;14.63;8.35;;;;;;;6.45;100.00;100652.38;5004447;28;20037;-71
2023/02/03 06:03:05;;;;;;;15.05;8.55;;;;;;;6.51;100.00;100643.69;5001890;28;20028;-71
2023/02/03 06:05:32;;;;;;;12.65;7.72;;;;;;;6.51;100.00;100648.94;5006505;28;20041;-71
2023/02/03 06:07:58;;;;;;;13.30;9.02;;;;;;;6.51;100.00;100643.69;5002615;28;20441;-71
2023/02/03 06:10:24;;;;;;;15.10;9.35;;;;;;;6.53;100.00;100626.25;5000647;28;20042;-71
2023/02/03 06:12:49;;;;;;;12.02;8.25;;;;;;;6.56;100.00;100640.25;5002258;28;20037;-71
2023/02/03 06:15:15;;;;;;;14.60;8.45;;;;;;;6.62;100.00;100641.19;5007929;28;20136;-71
2023/02/03 06:17:44;;;;;;;14.38;8.73;;;;;;;6.70;100.00;100642.16;5007154;28;20046;-71
2023/02/03 06:20:12;;;;;;;11.52;7.93;;;;;;;6.69;100.00;100637.78;5003256;28;20121;-71
2023/02/03 06:22:38;;;;;;;13.00;8.23;;;;;;;6.69;100.00;100630.78;5008926;28;20044;-71
2023/02/03 06:25:03;;;;;;;14.10;8.30;;;;;;;6.76;100.00;100624.75;5009247;28;20030;-71
2023/02/03 06:27:29;;;;;;;11.50;7.72;;;;;;;6.75;100.00;100636.09;5007757;28;20057;-71
2023/02/03 06:29:54;;;;;;;10.75;8.18;;;;;;;6.77;100.00;100613.38;5004539;28;20042;-72
2023/02/03 06:32:20;;;;;;;11.90;7.35;;;;;;;6.82;100.00;100613.44;5003841;28;20113;-71
2023/02/03 06:34:45;;;;;;;13.07;7.28;;;;;;;6.87;100.00;100603.88;5009258;28;20396;-71
2023/02/03 06:37:10;;;;;;;11.32;8.07;;;;;;;6.88;100.00;100608.25;5003617;28;20081;-71
2023/02/03 06:39:36;;;;;;;11.20;7.15;;;;;;;6.88;100.00;100586.38;5006296;28;20042;-71
2023/02/03 06:42:01;;;;;;;11.77;8.02;;;;;;;6.95;100.00;100588.22;5003823;28;20060;-71
2023/02/03 06:44:27;;;;;;;12.70;7.88;;;;;;;6.97;100.00;100574.25;5007011;28;20468;-71
2023/02/03 06:46:52;;;;;;;15.05;7.30;;;;;;;7.00;100.00;100573.41;5006700;28;20088;-71
2023/02/03 06:49:17;;;;;;;12.13;7.55;;;;;;;6.99;100.00;100580.34;5007350;28;20034;-71
2023/02/03 06:51:44;;;;;;;9.98;7.28;;;;;;;7.02;100.00;100585.66;5003393;28;20045;-71
2023/02/03 06:54:10;;;;;;;9.95;6.45;;;;;;;7.08;100.00;100571.72;5011745;28;20038;-71
2023/02/03 06:56:35;;;;;;;10.30;6.30;;;;;;;7.08;100.00;100579.59;5008331;28;20117;-71
2023/02/03 06:59:01;;;;;;;11.82;6.93;;;;;;;7.13;100.00;100558.63;5003614;28;20113;-71
2023/02/03 07:01:26;;;;;;;9.30;5.18;;;;;;;7.11;100.00;100568.25;5006202;28;20072;-72
2023/02/03 07:03:52;;;;;;;10.60;6.75;;;;;;;7.18;100.00;100580.56;5008908;28;20025;-71
2023/02/03 07:06:17;;;;;;;7.93;5.63;;;;;;;7.17;100.00;100571.78;5003985;28;20045;-71
2023/02/03 07:08:42;;;;;;;8.85;5.53;;;;;;;7.19;100.00;100558.69;5006334;28;20448;-72
2023/02/03 07:11:08;;;;;;;6.93;5.10;;;;;;;7.25;100.00;100551.72;5002908;28;20072;-71
2023/02/03 07:13:33;;;;;;;7.90;5.68;;;;;;;7.29;100.00;100567.50;5006313;28;20034;-71
2023/02/03 07:15:59;;;;;;;7.90;5.22;;;;;;;7.35;100.00;100560.53;5004176;28;20049;-71
2023/02/03 07:18:25;;;;;;;7.28;4.80;;;;;;;7.32;100.00;100563.16;5007911;28;20033;-71
2023/02/03 07:20:51;;;;;;;12.23;6.05;;;;;;;7.27;100.00;100578.00;5003056;28;20079;-72
2023/02/03 07:23:16;;;;;;;8.38;5.28;;;;;;;7.24;100.00;100557.84;5006891;28;20069;-72
2023/02/03 07:25:42;;;;;;;6.72;5.40;;;;;;;7.25;100.00;100562.22;5003939;28;20041;-71
2023/02/03 07:28:08;;;;;;;9.23;5.00;;;;;;;7.22;100.00;100549.06;5004583;28;20037;-71
2023/02/03 07:30:33;;;;;;;9.85;6.25;;;;;;;7.25;100.00;100540.34;5003460;28;20417;-71
2023/02/03 07:32:58;;;;;;;9.32;6.32;;;;;;;7.22;100.00;100554.31;5003279;28;20046;-71
2023/02/03 07:35:25;;;;;;;6.22;3.75;;;;;;;7.28;100.00;100542.97;5004945;28;20042;-71
2023/02/03 07:37:50;;;;;;;5.55;3.17;;;;;;;7.10;100.00;100545.47;5003811;28;20046;-71
2023/02/03 07:40:16;;;;;;;7.18;3.50;;;;;;;6.97;100.00;100555.88;5006174;28;20088;-72
2023/02/03 07:42:42;;;;;;;6.68;2.92;;;;;;;6.90;100.00;100540.94;5003727;28;20077;-72
2023/02/03 07:45:09;;;;;;;5.95;3.15;;;;;;;6.86;100.00;100548.75;5007631;28;20073;-71
2023/02/03 07:47:34;;;;;;;7.40;3.35;;;;;;;6.80;100.00;100546.97;5004582;28;20080;-72
2023/02/03 07:49:59;;;;;;;6.10;3.50;;;;;;;6.76;100.00;100545.19;5004008;28;20042;-72
2023/02/03 07:52:25;;;;;;;9.27;3.95;;;;;;;6.74;100.00;100558.28;5003492;28;20037;-72
2023/02/03 07:54:50;;;;;;;7.32;3.55;;;;;;;6.70;100.00;100543.34;5005596;28;20048;-72
2023/02/03 07:57:15;;;;;;;6.72;3.08;;;;;;;6.70;100.00;100538.13;5021236;22;20136;-76
2023/02/03 07:59:41;;;;;;;6.30;3.42;;;;;;;6.71;100.00;100537.28;5007099;28;20073;-76
2023/02/03 08:02:10;;;;;;;9.82;3.63;;;;;;;6.75;100.00;100543.41;5008660;28;20046;-76
2023/02/03 08:04:35;;;;;;;5.80;2.78;;;;;;;6.76;100.00;100537.31;5005597;28;20033;-76
2023/02/03 08:07:00;;;;;;;6.38;3.20;;;;;;;6.71;100.00;100542.50;5016293;28;20045;-76
2023/02/03 08:09:26;;;;;;;9.80;3.40;;;;;;;6.73;100.00;100538.16;5021822;28;20045;-76
2023/02/03 08:11:51;;;;;;;5.75;3.25;;;;;;;6.83;100.00;100533.00;5024532;28;20041;-77
2023/02/03 08:14:16;;;;;;;7.50;3.60;;;;;;;6.82;100.00;100526.88;5023856;28;20033;-76
2023/02/03 08:16:42;;;;;;;7.65;3.55;;;;;;;6.87;100.00;100519.94;5022147;28;20061;-76
2023/02/03 08:19:07;;;;;;;6.22;3.42;;;;;;;6.87;100.00;100514.69;5031301;28;20045;-77
2023/02/03 08:21:32;;;;;;;6.45;3.28;;;;;;;6.90;100.00;100530.44;5024067;28;20043;-77
2023/02/03 08:23:57;;;;;;;5.38;3.10;;;;;;;6.97;100.00;100498.16;5020530;28;20040;-76
2023/02/03 08:26:23;;;;;;;7.57;3.50;;;;;;;6.98;100.00;100496.41;5027616;28;20160;-76
2023/02/03 08:28:49;;;;;;;9.13;3.72;;;;;;;7.01;100.00;100491.16;5020780;28;20425;-77
2023/02/03 08:31:15;;;;;;;7.40;3.33;;;;;;;7.01;100.00;100485.91;5024470;28;20068;-77
2023/02/03 08:33:40;;;;;;;6.15;3.47;;;;;;;6.99;100.00;100478.03;5024502;28;20120;-77
2023/02/03 08:36:06;;;;;;;7.82;3.38;;;;;;;7.09;100.00;100491.22;5023923;28;20037;-77
2023/02/03 08:38:32;;;;;;;7.15;3.45;;;;;;;7.00;100.00;100477.19;5021054;28;20030;-77
2023/02/03 08:40:57;;;;;;;6.65;3.15;;;;;;;7.02;100.00;100488.56;5023921;28;20033;-77
2023/02/03 08:43:22;;;;;;;6.30;3.67;;;;;;;7.02;100.00;100478.06;5023151;28;20026;-77
2023/02/03 08:45:48;;;;;;;6.85;3.55;;;;;;;7.03;100.00;100465.81;5021568;28;20124;-76
2023/02/03 08:48:13;;;;;;;6.05;3.28;;;;;;;7.09;100.00;100462.38;5030229;28;20030;-77
2023/02/03 08:50:41;;;;;;;5.93;3.63;;;;;;;7.07;100.00;100450.97;5024149;28;20037;-77
2023/02/03 08:53:07;;;;;;;7.80;3.63;;;;;;;7.09;100.00;100450.09;5024036;28;20046;-78
2023/02/03 08:55:33;;;;;;;6.97;3.58;;;;;;;7.01;100.00;100447.44;5028080;28;20033;-77
2023/02/03 08:57:59;;;;;;;5.70;3.28;;;;;;;7.02;100.00;100432.56;5025256;28;20060;-76
2023/02/03 09:00:25;;;;;;;6.82;3.13;;;;;;;7.06;100.00;100433.47;5025179;28;20037;-77
2023/02/03 09:02:50;;;;;;;11.80;3.55;;;;;;;7.02;100.00;100438.72;5023717;28;20037;-78
2023/02/03 09:05:17;;;;;;;9.98;4.40;;;;;;;6.94;100.00;100431.63;5023416;28;20097;-78
2023/02/03 09:08:16;;;;;;;5.65;3.40;;;;;;;7.00;100.00;100434.31;5032776;28;20388;-80
2023/02/03 09:10:42;;;;;;;8.00;4.03;;;;;;;6.97;100.00;100445.69;5022571;28;20064;-76
2023/02/03 09:13:07;;;;;;;8.63;3.72;;;;;;;6.96;100.00;100425.53;5020842;28;20087;-77
2023/02/03 09:15:32;;;;;;;9.85;3.55;;;;;;;6.97;100.00;100419.44;5022406;28;20466;-76
2023/02/03 09:17:58;;;;;;;7.35;3.40;;;;;;;6.99;100.00;100416.81;5029979;28;20407;-76
2023/02/03 09:20:24;;;;;;;7.90;3.92;;;;;;;6.95;100.00;100415.91;5020312;28;20034;-77
2023/02/03 09:22:50;;;;;;;8.38;3.78;;;;;;;6.98;100.00;100400.19;5023286;28;20060;-77
2023/02/03 09:25:15;;;;;;;7.43;3.33;;;;;;;6.97;100.00;100408.94;5020819;28;20069;-79
2023/02/03 09:27:40;;;;;;;8.02;3.22;;;;;;;6.93;100.00;100422.88;5025613;28;20132;-76
2023/02/03 09:30:06;;;;;;;6.43;3.35;;;;;;;6.89;100.00;100399.25;5025424;28;20092;-76
2023/02/03 09:32:32;;;;;;;6.75;3.33;;;;;;;6.89;100.00;100378.25;5025481;28;20033;-76
2023/02/03 09:34:58;;;;;;;7.60;3.35;;;;;;;6.86;100.00;100360.75;5022942;28;20121;-76
2023/02/03 09:37:23;;;;;;;8.18;3.72;;;;;;;6.85;100.00;100366.00;5022810;28;20132;-78
2023/02/03 09:39:48;;;;;;;6.15;2.67;;;;;;;6.79;100.00;100367.72;5023401;28;20043;-78
2023/02/03 09:42:30;;;;;;;5.03;2.70;;;;;;;6.84;100.00;100375.63;5019529;28;20045;-77
2023/02/03 09:45:13;;;;;;;7.75;3.28;;;;;;;6.79;100.00;100372.09;5021199;28;20034;-77
2023/02/03 09:47:42;;;;;;;8.40;3.15;;;;;;;6.79;100.00;100370.34;5027943;28;20137;-78
2023/02/03 09:50:18;;;;;;;6.47;2.95;;;;;;;6.79;100.00;100358.97;5020837;28;20117;-77
2023/02/03 09:52:44;;;;;;;7.55;2.65;;;;;;;6.84;100.00;100362.50;5020350;28;20049;-77
2023/02/03 09:55:24;;;;;;;6.15;2.70;;;;;;;6.86;100.00;100342.38;5025656;28;20037;-77
2023/02/03 09:58:01;;;;;;;5.20;2.70;;;;;;;6.84;100.00;100348.50;5026831;28;20416;-77
2023/02/03 10:00:34;;;;;;;5.28;2.72;;;;;;;6.88;100.00;100330.16;5028604;28;20037;-78
2023/02/03 10:03:05;;;;;;;5.60;2.83;;;;;;;6.88;100.00;100303.91;5023168;28;20033;-77
2023/02/03 10:05:49;;;;;;;7.90;3.08;;;;;;;6.96;100.00;100320.56;5028557;28;20041;-78
2023/02/03 10:08:50;;;;;;;5.43;2.38;;;;;;;6.91;100.00;100303.94;5019574;28;20073;-78
2023/02/03 10:11:38;;;;;;;5.72;2.67;;;;;;;6.90;100.00;100304.81;5031887;28;20044;-77
2023/02/03 10:14:22;;;;;;;8.15;2.70;;;;;;;6.91;100.00;100297.81;5024382;28;20026;-77
2023/02/03 10:17:29;;;;;;;7.13;2.28;;;;;;;6.91;100.00;100288.19;5027963;28;20073;-78
2023/02/03 10:20:34;;;;;;;9.82;2.67;;;;;;;6.93;100.00;100319.69;4972553;28;20074;-78
2023/02/03 10:23:05;;;;;;;3.70;2.25;;;;;;;6.97;100.00;100303.97;4964742;28;20145;-78
2023/02/03 10:25:37;;;;;;;6.30;2.90;;;;;;;6.95;100.00;100284.72;5016572;28;20049;-78
2023/02/03 10:28:12;;;;;;;4.60;2.33;;;;;;;6.90;100.00;100281.19;5021310;28;20496;-77
2023/02/03 10:30:44;;;;;;;4.57;2.17;;;;;;;6.85;100.00;100267.19;5020197;28;20107;-77
2023/02/03 10:33:15;;;;;;;5.90;2.47;;;;;;;6.84;100.00;100278.56;5024829;28;20381;-76
2023/02/03 10:36:00;;;;;;;4.95;2.58;;;;;;;6.79;100.00;100310.00;5028706;28;20072;-77
2023/02/03 10:38:44;;;;;;;6.15;3.03;;;;;;;6.83;100.00;100283.78;5023964;28;20038;-77
2023/02/03 10:41:09;;;;;;;7.50;3.65;;;;;;;6.79;100.00;100246.19;5019275;28;20045;-77
2023/02/03 10:43:50;;;;;;;5.20;2.42;;;;;;;6.83;100.00;100254.94;5020913;28;20057;-77
2023/02/03 10:46:30;;;;;;;5.45;2.70;;;;;;;6.87;100.00;100240.97;5020536;28;20552;-77
2023/02/03 10:48:56;;;;;;;5.50;2.70;;;;;;;6.84;100.00;100265.44;5022595;28;20038;-77
2023/02/03 10:51:45;;;;;;;7.57;2.55;;;;;;;6.86;100.00;100253.19;5021626;28;20086;-77
2023/02/03 10:54:30;;;;;;;7.35;2.55;;;;;;;6.90;100.00;100248.84;5020205;28;20467;-77
2023/02/03 10:57:02;;;;;;;6.22;3.00;;;;;;;6.94;100.00;100245.34;5023384;28;20108;-77
2023/02/03 10:59:31;;;;;;;5.10;2.50;;;;;;;6.94;100.00;100243.63;5026508;28;20412;-77
2023/02/03 11:01:56;;;;;;;5.03;2.30;;;;;;;6.97;100.00;100261.13;5025358;28;20041;-76
2023/02/03 11:04:30;;;;;;;3.38;2.13;;;;;;;6.97;100.00;100246.25;5027119;28;20041;-77
2023/02/03 11:07:01;;;;;;;4.40;1.88;;;;;;;7.00;100.00;100248.03;5024349;28;20092;-75
2023/02/03 11:09:46;;;;;;;5.28;2.17;;;;;;;7.01;100.00;100241.88;5022932;28;20034;-77
2023/02/03 11:12:17;;;;;;;6.20;2.30;;;;;;;7.02;100.00;100249.78;5023281;28;20077;-76
2023/02/03 11:14:47;;;;;;;8.60;3.08;;;;;;;6.99;100.00;100218.25;5025733;28;20044;-77
2023/02/03 11:17:15;;;;;;;6.85;2.25;;;;;;;7.01;100.00;100232.25;5033251;28;20128;-77
2023/02/03 11:19:44;;;;;;;3.78;1.80;;;;;;;7.03;100.00;100234.91;5023726;28;20061;-77
2023/02/03 11:22:10;;;;;;;6.72;2.20;;;;;;;7.05;100.00;100224.41;5029757;28;20128;-77
2023/02/03 11:24:40;;;;;;;5.22;2.13;;;;;;;7.09;100.00;100223.56;5025508;28;20113;-77
2023/02/03 11:27:11;;;;;;;4.70;2.00;;;;;;;7.11;100.00;100232.31;5028435;28;20129;-77
2023/02/03 11:29:42;;;;;;;4.55;1.63;;;;;;;7.08;100.00;100206.94;5022276;28;20037;-77
2023/02/03 11:32:21;;;;;;;4.10;1.73;;;;;;;7.09;100.00;100194.69;5026545;28;20084;-77
2023/02/03 11:34:56;;;;;;;3.50;1.40;;;;;;;7.22;100.00;100133.47;5022481;28;20495;-78